sensor_id;sensor_type;location;lat;lon;timestamp;pressure;altitude;pressure_sealevel;temperature;humidity
71966;BME280;59836;52.132;5.442;2023-04-26T00:01:24;102001.34;;;5.02;83.04
71966;BME280;59836;52.132;5.442;2023-04-26T00:03:52;102003.00;;;5.03;82.88
71966;BME280;59836;52.132;5.442;2023-04-26T00:06:22;102004.66;;;5.05;82.80
71966;BME280;59836;52.132;5.442;2023-04-26T00:08:48;102001.34;;;5.02;82.54
71966;BME280;59836;52.132;5.442;2023-04-26T00:11:15;102005.06;;;5.01;82.46
71966;BME280;59836;52.132;5.442;2023-04-26T00:13:41;102008.38;;;4.97;82.83
71966;BME280;59836;52.132;5.442;2023-04-26T00:16:08;102006.28;;;4.92;82.26
71966;BME280;59836;52.132;5.442;2023-04-26T00:18:34;102011.44;;;4.87;82.50
71966;BME280;59836;52.132;5.442;2023-04-26T00:21:01;102004.19;;;4.81;82.40
71966;BME280;59836;52.132;5.442;2023-04-26T00:23:27;102008.31;;;4.77;82.46
71966;BME280;59836;52.132;5.442;2023-04-26T00:25:55;102001.28;;;4.76;82.23
71966;BME280;59836;52.132;5.442;2023-04-26T00:28:22;102007.25;;;4.71;81.86
71966;BME280;59836;52.132;5.442;2023-04-26T00:30:48;101995.69;;;4.70;82.64
71966;BME280;59836;52.132;5.442;2023-04-26T00:33:16;101996.91;;;4.68;82.50
71966;BME280;59836;52.132;5.442;2023-04-26T00:35:42;101996.09;;;4.67;82.63
71966;BME280;59836;52.132;5.442;2023-04-26T00:38:09;101995.66;;;4.64;82.42
71966;BME280;59836;52.132;5.442;2023-04-26T00:40:36;101996.28;;;4.59;82.84
71966;BME280;59836;52.132;5.442;2023-04-26T00:43:02;101989.00;;;4.53;82.58
71966;BME280;59836;52.132;5.442;2023-04-26T00:45:29;101995.81;;;4.49;82.54
71966;BME280;59836;52.132;5.442;2023-04-26T00:47:57;101995.19;;;4.47;82.76
71966;BME280;59836;52.132;5.442;2023-04-26T00:50:26;101985.88;;;4.42;82.41
71966;BME280;59836;52.132;5.442;2023-04-26T00:52:52;101987.91;;;4.40;82.58
71966;BME280;59836;52.132;5.442;2023-04-26T00:55:20;101988.72;;;4.34;82.80
71966;BME280;59836;52.132;5.442;2023-04-26T00:57:48;101985.41;;;4.32;82.90
71966;BME280;59836;52.132;5.442;2023-04-26T01:00:14;101991.16;;;4.29;82.88
71966;BME280;59836;52.132;5.442;2023-04-26T01:02:41;101988.03;;;4.25;82.91
71966;BME280;59836;52.132;5.442;2023-04-26T01:05:08;101991.16;;;4.22;83.12
71966;BME280;59836;52.132;5.442;2023-04-26T01:07:36;101987.00;;;4.20;82.33
71966;BME280;59836;52.132;5.442;2023-04-26T01:10:03;101989.03;;;4.18;82.55
71966;BME280;59836;52.132;5.442;2023-04-26T01:12:31;101994.81;;;4.14;82.47
71966;BME280;59836;52.132;5.442;2023-04-26T01:14:58;101996.03;;;4.12;82.03
71966;BME280;59836;52.132;5.442;2023-04-26T01:17:25;102001.34;;;4.05;82.26
71966;BME280;59836;52.132;5.442;2023-04-26T01:19:52;101989.75;;;3.98;81.95
71966;BME280;59836;52.132;5.442;2023-04-26T01:22:18;102005.22;;;3.96;82.43
71966;BME280;59836;52.132;5.442;2023-04-26T01:24:47;102015.72;;;3.91;82.71
71966;BME280;59836;52.132;5.442;2023-04-26T01:27:15;102008.25;;;3.86;82.98
71966;BME280;59836;52.132;5.442;2023-04-26T01:29:42;102006.78;;;3.83;82.85
71966;BME280;59836;52.132;5.442;2023-04-26T01:32:08;102010.50;;;3.82;82.94
71966;BME280;59836;52.132;5.442;2023-04-26T01:34:35;102010.50;;;3.82;83.08
71966;BME280;59836;52.132;5.442;2023-04-26T01:37:02;102011.50;;;3.81;83.00
71966;BME280;59836;52.132;5.442;2023-04-26T01:39:29;102007.38;;;3.79;83.00
71966;BME280;59836;52.132;5.442;2023-04-26T01:41:56;102014.59;;;3.78;82.81
71966;BME280;59836;52.132;5.442;2023-04-26T01:44:23;102012.28;;;3.75;83.19
71966;BME280;59836;52.132;5.442;2023-04-26T01:46:50;102014.34;;;3.73;82.64
71966;BME280;59836;52.132;5.442;2023-04-26T01:49:16;102006.28;;;3.73;82.81
71966;BME280;59836;52.132;5.442;2023-04-26T01:51:43;102000.28;;;3.71;83.31
71966;BME280;59836;52.132;5.442;2023-04-26T01:54:09;102002.16;;;3.71;82.87
71966;BME280;59836;52.132;5.442;2023-04-26T01:56:36;102000.09;;;3.73;83.19
71966;BME280;59836;52.132;5.442;2023-04-26T01:59:03;101998.66;;;3.70;83.33
71966;BME280;59836;52.132;5.442;2023-04-26T02:01:29;101996.16;;;3.68;83.30
71966;BME280;59836;52.132;5.442;2023-04-26T02:03:56;101998.22;;;3.66;82.91
71966;BME280;59836;52.132;5.442;2023-04-26T02:06:23;101994.72;;;3.66;83.40
71966;BME280;59836;52.132;5.442;2023-04-26T02:08:49;101998.59;;;3.63;83.37
71966;BME280;59836;52.132;5.442;2023-04-26T02:11:16;102001.88;;;3.59;83.06
71966;BME280;59836;52.132;5.442;2023-04-26T02:13:43;102002.69;;;3.59;83.05
71966;BME280;59836;52.132;5.442;2023-04-26T02:16:09;101998.56;;;3.57;83.15
71966;BME280;59836;52.132;5.442;2023-04-26T02:18:36;102000.97;;;3.51;83.00
71966;BME280;59836;52.132;5.442;2023-04-26T02:21:12;102001.38;;;3.48;83.15
71966;BME280;59836;52.132;5.442;2023-04-26T02:23:38;102002.41;;;3.47;83.02
71966;BME280;59836;52.132;5.442;2023-04-26T02:26:05;101997.41;;;3.44;83.16
71966;BME280;59836;52.132;5.442;2023-04-26T02:28:31;101998.81;;;3.40;84.10
71966;BME280;59836;52.132;5.442;2023-04-26T02:30:58;102000.88;;;3.38;83.97
71966;BME280;59836;52.132;5.442;2023-04-26T02:33:25;101994.88;;;3.36;83.68
71966;BME280;59836;52.132;5.442;2023-04-26T02:35:51;102002.91;;;3.36;83.97
71966;BME280;59836;52.132;5.442;2023-04-26T02:38:18;102005.78;;;3.34;83.30
71966;BME280;59836;52.132;5.442;2023-04-26T02:40:44;102014.41;;;3.30;83.00
71966;BME280;59836;52.132;5.442;2023-04-26T02:43:11;102004.44;;;3.23;83.18
71966;BME280;59836;52.132;5.442;2023-04-26T02:45:43;102001.13;;;3.21;83.37
71966;BME280;59836;52.132;5.442;2023-04-26T02:48:10;102002.25;;;3.12;83.14
71966;BME280;59836;52.132;5.442;2023-04-26T02:50:36;102001.84;;;3.08;83.28
71966;BME280;59836;52.132;5.442;2023-04-26T02:53:03;102005.06;;;3.04;83.64
71966;BME280;59836;52.132;5.442;2023-04-26T02:55:29;101999.06;;;3.02;83.63
71966;BME280;59836;52.132;5.442;2023-04-26T02:57:56;101998.44;;;3.00;83.50
71966;BME280;59836;52.132;5.442;2023-04-26T03:00:22;102003.16;;;2.98;83.38
71966;BME280;59836;52.132;5.442;2023-04-26T03:02:50;102003.78;;;3.00;83.14
71966;BME280;59836;52.132;5.442;2023-04-26T03:05:17;101994.09;;;2.99;83.18
71966;BME280;59836;52.132;5.442;2023-04-26T03:07:45;101993.00;;;2.93;83.15
71966;BME280;59836;52.132;5.442;2023-04-26T03:10:11;101990.72;;;2.90;83.25
71966;BME280;59836;52.132;5.442;2023-04-26T03:12:38;101991.91;;;2.87;83.29
71966;BME280;59836;52.132;5.442;2023-04-26T03:15:04;101988.41;;;2.87;83.24
71966;BME280;59836;52.132;5.442;2023-04-26T03:17:31;101992.91;;;2.86;83.47
71966;BME280;59836;52.132;5.442;2023-04-26T03:19:57;101988.56;;;2.85;83.75
71966;BME280;59836;52.132;5.442;2023-04-26T03:22:27;101993.13;;;2.85;83.19
71966;BME280;59836;52.132;5.442;2023-04-26T03:24:53;101994.16;;;2.84;83.57
71966;BME280;59836;52.132;5.442;2023-04-26T03:27:19;101991.63;;;2.82;83.65
71966;BME280;59836;52.132;5.442;2023-04-26T03:29:46;101993.69;;;2.80;83.61
71966;BME280;59836;52.132;5.442;2023-04-26T03:32:12;101992.00;;;2.79;83.46
71966;BME280;59836;52.132;5.442;2023-04-26T03:34:39;101983.97;;;2.79;83.37
71966;BME280;59836;52.132;5.442;2023-04-26T03:37:06;101988.69;;;2.77;83.33
71966;BME280;59836;52.132;5.442;2023-04-26T03:39:32;101994.44;;;2.74;83.33
71966;BME280;59836;52.132;5.442;2023-04-26T03:41:59;101983.91;;;2.72;83.46
71966;BME280;59836;52.132;5.442;2023-04-26T03:44:26;101986.13;;;2.69;83.62
71966;BME280;59836;52.132;5.442;2023-04-26T03:46:56;101984.41;;;2.61;84.15
71966;BME280;59836;52.132;5.442;2023-04-26T03:49:22;101987.00;;;2.54;84.46
71966;BME280;59836;52.132;5.442;2023-04-26T03:51:49;101987.66;;;2.56;84.35
71966;BME280;59836;52.132;5.442;2023-04-26T03:54:16;101988.47;;;2.57;84.60
71966;BME280;59836;52.132;5.442;2023-04-26T03:56:42;101983.97;;;2.57;84.09
71966;BME280;59836;52.132;5.442;2023-04-26T03:59:09;101989.97;;;2.59;84.21
71966;BME280;59836;52.132;5.442;2023-04-26T04:01:35;101988.94;;;2.60;84.00
71966;BME280;59836;52.132;5.442;2023-04-26T04:04:02;101984.97;;;2.56;84.06
71966;BME280;59836;52.132;5.442;2023-04-26T04:06:29;101992.63;;;2.59;83.70
71966;BME280;59836;52.132;5.442;2023-04-26T04:08:56;101984.97;;;2.56;83.81
71966;BME280;59836;52.132;5.442;2023-04-26T04:11:22;101990.34;;;2.56;84.09
71966;BME280;59836;52.132;5.442;2023-04-26T04:13:49;101976.09;;;2.56;84.08
71966;BME280;59836;52.132;5.442;2023-04-26T04:16:15;101979.63;;;2.56;84.10
71966;BME280;59836;52.132;5.442;2023-04-26T04:18:42;101982.28;;;2.56;84.11
71966;BME280;59836;52.132;5.442;2023-04-26T04:21:08;101982.66;;;2.53;84.29
71966;BME280;59836;52.132;5.442;2023-04-26T04:23:35;101980.00;;;2.53;84.09
71966;BME280;59836;52.132;5.442;2023-04-26T04:26:01;101980.38;;;2.50;84.18
71966;BME280;59836;52.132;5.442;2023-04-26T04:28:28;101983.69;;;2.52;84.09
71966;BME280;59836;52.132;5.442;2023-04-26T04:30:55;101977.50;;;2.51;84.52
71966;BME280;59836;52.132;5.442;2023-04-26T04:33:22;101978.78;;;2.56;84.85
71966;BME280;59836;52.132;5.442;2023-04-26T04:35:50;101983.97;;;2.57;84.53
71966;BME280;59836;52.132;5.442;2023-04-26T04:38:17;101983.97;;;2.57;84.63
71966;BME280;59836;52.132;5.442;2023-04-26T04:40:46;101985.63;;;2.58;84.94
71966;BME280;59836;52.132;5.442;2023-04-26T04:43:13;101983.59;;;2.60;84.92
71966;BME280;59836;52.132;5.442;2023-04-26T04:45:39;101986.91;;;2.62;85.37
71966;BME280;59836;52.132;5.442;2023-04-26T04:48:06;101990.22;;;2.64;85.23
71966;BME280;59836;52.132;5.442;2023-04-26T04:50:34;101986.13;;;2.69;85.33
71966;BME280;59836;52.132;5.442;2023-04-26T04:53:03;101989.81;;;2.68;85.08
71966;BME280;59836;52.132;5.442;2023-04-26T04:55:30;101984.47;;;2.68;85.40
71966;BME280;59836;52.132;5.442;2023-04-26T04:57:57;101996.84;;;2.69;85.66
71966;BME280;59836;52.132;5.442;2023-04-26T05:00:23;101996.84;;;2.69;85.52
71966;BME280;59836;52.132;5.442;2023-04-26T05:02:50;101991.47;;;2.69;85.61
71966;BME280;59836;52.132;5.442;2023-04-26T05:05:16;102000.53;;;2.68;85.92
71966;BME280;59836;52.132;5.442;2023-04-26T05:07:43;101996.84;;;2.69;86.00
71966;BME280;59836;52.132;5.442;2023-04-26T05:10:10;101997.47;;;2.71;86.23
71966;BME280;59836;52.132;5.442;2023-04-26T05:12:37;102001.00;;;2.71;86.26
71966;BME280;59836;52.132;5.442;2023-04-26T05:15:03;102003.75;;;2.78;86.31
71966;BME280;59836;52.132;5.442;2023-04-26T05:17:31;102010.00;;;2.85;86.58
71966;BME280;59836;52.132;5.442;2023-04-26T05:19:58;102013.59;;;2.92;86.43
71966;BME280;59836;52.132;5.442;2023-04-26T05:22:25;102015.53;;;2.99;86.32
71966;BME280;59836;52.132;5.442;2023-04-26T05:24:52;102015.78;;;3.04;86.77
71966;BME280;59836;52.132;5.442;2023-04-26T05:27:18;102015.03;;;3.10;86.53
71966;BME280;59836;52.132;5.442;2023-04-26T05:29:45;102016.31;;;3.14;86.49
71966;BME280;59836;52.132;5.442;2023-04-26T05:32:11;102013.88;;;3.19;86.83
71966;BME280;59836;52.132;5.442;2023-04-26T05:34:38;102014.78;;;3.27;87.16
71966;BME280;59836;52.132;5.442;2023-04-26T05:37:04;102005.78;;;3.34;87.14
71966;BME280;59836;52.132;5.442;2023-04-26T05:39:30;102012.03;;;3.42;87.12
71966;BME280;59836;52.132;5.442;2023-04-26T05:41:57;102014.78;;;3.48;87.06
71966;BME280;59836;52.132;5.442;2023-04-26T05:44:23;102016.69;;;3.54;87.48
71966;BME280;59836;52.132;5.442;2023-04-26T05:46:50;102021.69;;;3.58;87.52
71966;BME280;59836;52.132;5.442;2023-04-26T05:49:16;102017.84;;;3.67;87.38
71966;BME280;59836;52.132;5.442;2023-04-26T05:51:43;102019.72;;;3.73;87.55
71966;BME280;59836;52.132;5.442;2023-04-26T05:54:09;102009.84;;;3.80;87.36
71966;BME280;59836;52.132;5.442;2023-04-26T05:56:35;102015.06;;;3.89;87.01
71966;BME280;59836;52.132;5.442;2023-04-26T05:59:02;102018.25;;;3.99;87.46
71966;BME280;59836;52.132;5.442;2023-04-26T06:01:28;102008.19;;;4.08;87.08
71966;BME280;59836;52.132;5.442;2023-04-26T06:03:55;102008.88;;;4.17;87.10
71966;BME280;59836;52.132;5.442;2023-04-26T06:06:26;102018.03;;;4.29;86.98
71966;BME280;59836;52.132;5.442;2023-04-26T06:08:53;102013.75;;;4.41;87.24
71966;BME280;59836;52.132;5.442;2023-04-26T06:11:19;102012.16;;;4.54;87.24
71966;BME280;59836;52.132;5.442;2023-04-26T06:13:46;102020.28;;;4.67;87.32
71966;BME280;59836;52.132;5.442;2023-04-26T06:16:13;102016.97;;;4.79;86.85
71966;BME280;59836;52.132;5.442;2023-04-26T06:18:39;102008.34;;;4.90;86.94
71966;BME280;59836;52.132;5.442;2023-04-26T06:21:06;102012.50;;;4.99;86.42
71966;BME280;59836;52.132;5.442;2023-04-26T06:23:33;102013.34;;;5.07;85.39
71966;BME280;59836;52.132;5.442;2023-04-26T06:25:59;102011.72;;;5.12;84.91
71966;BME280;59836;52.132;5.442;2023-04-26T06:28:26;102013.78;;;5.17;84.54
71966;BME280;59836;52.132;5.442;2023-04-26T06:30:52;102020.41;;;5.21;84.00
71966;BME280;59836;52.132;5.442;2023-04-26T06:33:19;102026.84;;;5.27;83.92
71966;BME280;59836;52.132;5.442;2023-04-26T06:35:45;102029.53;;;5.34;84.59
71966;BME280;59836;52.132;5.442;2023-04-26T06:38:12;102021.69;;;5.39;84.77
71966;BME280;59836;52.132;5.442;2023-04-26T06:40:38;102035.13;;;5.45;85.34
71966;BME280;59836;52.132;5.442;2023-04-26T06:43:05;102035.16;;;5.52;85.66
71966;BME280;59836;52.132;5.442;2023-04-26T06:45:31;102040.34;;;5.60;84.21
71966;BME280;59836;52.132;5.442;2023-04-26T06:47:58;102035.38;;;5.71;84.25
71966;BME280;59836;52.132;5.442;2023-04-26T06:50:26;102043.25;;;5.79;83.84
71966;BME280;59836;52.132;5.442;2023-04-26T06:52:53;102037.84;;;5.86;83.27
71966;BME280;59836;52.132;5.442;2023-04-26T06:55:19;102045.91;;;5.93;83.32
71966;BME280;59836;52.132;5.442;2023-04-26T06:57:46;102037.81;;;5.99;82.55
71966;BME280;59836;52.132;5.442;2023-04-26T07:00:13;102039.50;;;6.07;82.18
71966;BME280;59836;52.132;5.442;2023-04-26T07:02:39;102042.19;;;6.14;81.85
71966;BME280;59836;52.132;5.442;2023-04-26T07:05:07;102048.16;;;6.23;80.93
71966;BME280;59836;52.132;5.442;2023-04-26T07:07:34;102042.78;;;6.29;81.02
71966;BME280;59836;52.132;5.442;2023-04-26T07:10:01;102048.16;;;6.36;80.48
71966;BME280;59836;52.132;5.442;2023-04-26T07:12:28;102042.34;;;6.39;79.45
71966;BME280;59836;52.132;5.442;2023-04-26T07:14:54;102038.59;;;6.40;78.32
71966;BME280;59836;52.132;5.442;2023-04-26T07:17:21;102037.34;;;6.43;78.50
71966;BME280;59836;52.132;5.442;2023-04-26T07:19:47;102031.94;;;6.49;78.13
71966;BME280;59836;52.132;5.442;2023-04-26T07:22:14;102036.06;;;6.59;78.18
71966;BME280;59836;52.132;5.442;2023-04-26T07:24:40;102037.28;;;6.63;77.71
71966;BME280;59836;52.132;5.442;2023-04-26T07:27:06;102036.44;;;6.69;77.33
71966;BME280;59836;52.132;5.442;2023-04-26T07:29:33;102030.19;;;6.75;77.42
71966;BME280;59836;52.132;5.442;2023-04-26T07:32:13;102025.78;;;6.81;76.30
71966;BME280;59836;52.132;5.442;2023-04-26T07:34:40;102018.13;;;6.85;75.77
71966;BME280;59836;52.132;5.442;2023-04-26T07:37:07;102021.38;;;6.93;76.17
71966;BME280;59836;52.132;5.442;2023-04-26T07:39:33;102022.38;;;6.99;74.92
71966;BME280;59836;52.132;5.442;2023-04-26T07:42:00;102024.63;;;7.02;74.77
71966;BME280;59836;52.132;5.442;2023-04-26T07:44:26;102026.69;;;7.07;75.22
71966;BME280;59836;52.132;5.442;2023-04-26T07:46:53;102030.22;;;7.07;74.46
71966;BME280;59836;52.132;5.442;2023-04-26T07:49:20;102033.09;;;7.13;74.38
71966;BME280;59836;52.132;5.442;2023-04-26T07:51:47;102033.69;;;7.15;73.45
71966;BME280;59836;52.132;5.442;2023-04-26T07:54:14;102038.66;;;7.18;73.80
71966;BME280;59836;52.132;5.442;2023-04-26T07:56:40;102040.97;;;7.14;71.74
71966;BME280;59836;52.132;5.442;2023-04-26T07:59:07;102047.00;;;7.09;71.81
71966;BME280;59836;52.132;5.442;2023-04-26T08:01:33;102035.41;;;7.09;72.24
71966;BME280;59836;52.132;5.442;2023-04-26T08:04:00;102048.22;;;7.14;72.16
71966;BME280;59836;52.132;5.442;2023-04-26T08:06:27;102044.28;;;7.16;72.07
71966;BME280;59836;52.132;5.442;2023-04-26T08:08:54;102047.78;;;7.23;71.66
71966;BME280;59836;52.132;5.442;2023-04-26T08:11:21;102049.78;;;7.35;70.90
71966;BME280;59836;52.132;5.442;2023-04-26T08:13:47;102044.69;;;7.45;70.62
71966;BME280;59836;52.132;5.442;2023-04-26T08:16:13;102044.66;;;7.52;71.39
71966;BME280;59836;52.132;5.442;2023-04-26T08:18:40;102042.13;;;7.57;69.47
71966;BME280;59836;52.132;5.442;2023-04-26T08:21:10;102043.34;;;7.61;68.07
71966;BME280;59836;52.132;5.442;2023-04-26T08:23:37;102045.97;;;7.68;68.08
71966;BME280;59836;52.132;5.442;2023-04-26T08:26:03;102046.75;;;7.75;68.57
71966;BME280;59836;52.132;5.442;2023-04-26T08:28:31;102045.94;;;7.75;66.75
71966;BME280;59836;52.132;5.442;2023-04-26T08:30:58;102044.91;;;7.76;65.39
71966;BME280;59836;52.132;5.442;2023-04-26T08:33:24;102055.69;;;7.76;66.46
71966;BME280;59836;52.132;5.442;2023-04-26T08:35:51;102049.25;;;7.77;65.91
71966;BME280;59836;52.132;5.442;2023-04-26T08:38:17;102041.16;;;7.77;65.82
71966;BME280;59836;52.132;5.442;2023-04-26T08:40:45;102043.25;;;7.75;65.67
71966;BME280;59836;52.132;5.442;2023-04-26T08:43:19;102043.44;;;7.73;65.96
71966;BME280;59836;52.132;5.442;2023-04-26T08:45:46;102042.84;;;7.71;66.57
71966;BME280;59836;52.132;5.442;2023-04-26T08:48:13;102036.47;;;7.65;66.35
71966;BME280;59836;52.132;5.442;2023-04-26T08:50:43;102045.81;;;7.63;66.49
71966;BME280;59836;52.132;5.442;2023-04-26T08:53:21;102040.03;;;7.59;67.09
71966;BME280;59836;52.132;5.442;2023-04-26T08:55:56;102045.03;;;7.56;67.42
71966;BME280;59836;52.132;5.442;2023-04-26T08:58:37;102048.59;;;7.56;67.94
71966;BME280;59836;52.132;5.442;2023-04-26T09:01:04;102046.94;;;7.55;68.73
71966;BME280;59836;52.132;5.442;2023-04-26T09:03:31;102048.59;;;7.56;68.44
71966;BME280;59836;52.132;5.442;2023-04-26T09:05:59;102053.81;;;7.51;68.55
71966;BME280;59836;52.132;5.442;2023-04-26T09:08:29;102049.66;;;7.48;69.33
71966;BME280;59836;52.132;5.442;2023-04-26T09:11:01;102046.59;;;7.45;69.98
71966;BME280;59836;52.132;5.442;2023-04-26T09:13:28;102039.97;;;7.41;70.24
71966;BME280;59836;52.132;5.442;2023-04-26T09:15:57;102045.00;;;7.37;70.90
71966;BME280;59836;52.132;5.442;2023-04-26T09:18:24;102041.44;;;7.36;70.53
71966;BME280;59836;52.132;5.442;2023-04-26T09:23:27;102040.22;;;7.32;69.32
71966;BME280;59836;52.132;5.442;2023-04-26T09:25:54;102049.38;;;7.31;69.48
71966;BME280;59836;52.132;5.442;2023-04-26T09:28:22;102052.91;;;7.32;69.51
71966;BME280;59836;52.132;5.442;2023-04-26T09:30:48;102051.63;;;7.34;69.53
71966;BME280;59836;52.132;5.442;2023-04-26T09:33:15;102048.94;;;7.34;67.82
71966;BME280;59836;52.132;5.442;2023-04-26T09:35:42;102048.72;;;7.36;67.38
71966;BME280;59836;52.132;5.442;2023-04-26T09:38:13;102045.97;;;7.43;68.05
71966;BME280;59836;52.132;5.442;2023-04-26T09:40:46;102048.84;;;7.48;68.62
71966;BME280;59836;52.132;5.442;2023-04-26T09:45:49;102052.09;;;7.57;67.33
71966;BME280;59836;52.132;5.442;2023-04-26T09:48:19;102055.56;;;7.64;67.03
71966;BME280;59836;52.132;5.442;2023-04-26T09:50:52;102048.47;;;7.70;66.41
71966;BME280;59836;52.132;5.442;2023-04-26T09:53:37;102049.09;;;7.72;66.61
71966;BME280;59836;52.132;5.442;2023-04-26T09:58:54;102044.38;;;7.86;66.49
71966;BME280;59836;52.132;5.442;2023-04-26T10:01:25;102048.09;;;7.91;66.03
71966;BME280;59836;52.132;5.442;2023-04-26T10:03:52;102046.38;;;7.97;65.08
71966;BME280;59836;52.132;5.442;2023-04-26T10:06:19;102043.44;;;7.98;64.66
71966;BME280;59836;52.132;5.442;2023-04-26T10:08:45;102041.78;;;7.97;63.70
71966;BME280;59836;52.132;5.442;2023-04-26T10:11:12;102042.53;;;8.05;64.26
71966;BME280;59836;52.132;5.442;2023-04-26T10:13:40;102031.88;;;8.10;63.81
71966;BME280;59836;52.132;5.442;2023-04-26T10:16:07;102035.81;;;8.14;63.58
71966;BME280;59836;52.132;5.442;2023-04-26T10:18:35;102026.19;;;8.18;63.05
71966;BME280;59836;52.132;5.442;2023-04-26T10:21:07;102031.75;;;8.23;62.87
71966;BME280;59836;52.132;5.442;2023-04-26T10:23:36;102036.50;;;8.28;62.51
71966;BME280;59836;52.132;5.442;2023-04-26T10:26:03;102036.88;;;8.32;62.36
71966;BME280;59836;52.132;5.442;2023-04-26T10:31:06;102034.72;;;8.40;62.60
71966;BME280;59836;52.132;5.442;2023-04-26T10:33:33;102035.06;;;8.44;62.06
71966;BME280;59836;52.132;5.442;2023-04-26T10:36:02;102037.31;;;8.47;61.57
71966;BME280;59836;52.132;5.442;2023-04-26T10:38:30;102035.91;;;8.45;61.38
71966;BME280;59836;52.132;5.442;2023-04-26T10:41:35;102031.75;;;8.42;60.74
71966;BME280;59836;52.132;5.442;2023-04-26T10:46:59;102036.56;;;8.40;61.01
71966;BME280;59836;52.132;5.442;2023-04-26T10:49:25;102026.00;;;8.38;61.03
71966;BME280;59836;52.132;5.442;2023-04-26T10:52:11;102032.66;;;8.36;61.07
71966;BME280;59836;52.132;5.442;2023-04-26T10:54:54;102028.91;;;8.37;61.96
71966;BME280;59836;52.132;5.442;2023-04-26T10:57:22;102028.91;;;8.37;61.94
71966;BME280;59836;52.132;5.442;2023-04-26T11:03:02;102024.25;;;8.44;61.69
71966;BME280;59836;52.132;5.442;2023-04-26T11:05:40;102021.72;;;8.49;61.42
71966;BME280;59836;52.132;5.442;2023-04-26T11:08:27;102027.88;;;8.56;61.86
71966;BME280;59836;52.132;5.442;2023-04-26T11:13:33;102028.63;;;8.64;61.15
71966;BME280;59836;52.132;5.442;2023-04-26T11:16:02;102027.59;;;8.65;60.95
71966;BME280;59836;52.132;5.442;2023-04-26T11:18:30;102028.63;;;8.64;62.49
71966;BME280;59836;52.132;5.442;2023-04-26T11:20:58;102014.06;;;8.65;61.37
71966;BME280;59836;52.132;5.442;2023-04-26T11:23:26;102012.41;;;8.64;60.95
71966;BME280;59836;52.132;5.442;2023-04-26T11:25:59;102013.00;;;8.66;60.58
71966;BME280;59836;52.132;5.442;2023-04-26T11:28:31;102013.16;;;8.71;60.83
71966;BME280;59836;52.132;5.442;2023-04-26T11:31:00;102007.63;;;8.78;60.19
71966;BME280;59836;52.132;5.442;2023-04-26T11:33:27;102006.28;;;8.87;59.70
71966;BME280;59836;52.132;5.442;2023-04-26T11:35:56;102003.09;;;8.90;59.82
71966;BME280;59836;52.132;5.442;2023-04-26T11:38:24;102001.38;;;8.96;59.67
71966;BME280;59836;52.132;5.442;2023-04-26T11:40:55;101993.63;;;9.11;59.25
71966;BME280;59836;52.132;5.442;2023-04-26T11:43:43;102003.72;;;9.35;58.76
71966;BME280;59836;52.132;5.442;2023-04-26T11:46:09;102005.38;;;9.48;58.39
71966;BME280;59836;52.132;5.442;2023-04-26T11:48:37;102006.22;;;9.60;58.44
71966;BME280;59836;52.132;5.442;2023-04-26T11:51:05;102007.53;;;9.69;57.55
71966;BME280;59836;52.132;5.442;2023-04-26T11:53:36;101998.78;;;9.79;57.77
71966;BME280;59836;52.132;5.442;2023-04-26T11:58:51;101996.34;;;10.01;56.92
71966;BME280;59836;52.132;5.442;2023-04-26T12:01:26;101996.44;;;10.07;56.60
71966;BME280;59836;52.132;5.442;2023-04-26T12:03:57;101994.50;;;10.19;57.08
71966;BME280;59836;52.132;5.442;2023-04-26T12:06:50;101997.44;;;10.29;56.47
71966;BME280;59836;52.132;5.442;2023-04-26T12:09:16;101996.63;;;10.41;56.12
71966;BME280;59836;52.132;5.442;2023-04-26T12:11:52;101997.06;;;10.38;55.42
71966;BME280;59836;52.132;5.442;2023-04-26T12:14:22;101996.38;;;10.30;56.72
71966;BME280;59836;52.132;5.442;2023-04-26T12:16:49;102002.53;;;10.14;55.41
71966;BME280;59836;52.132;5.442;2023-04-26T12:19:15;101999.72;;;9.97;55.09
71966;BME280;59836;52.132;5.442;2023-04-26T12:21:42;102014.25;;;9.79;55.83
71966;BME280;59836;52.132;5.442;2023-04-26T12:24:38;102009.97;;;9.71;57.87
71966;BME280;59836;52.132;5.442;2023-04-26T12:27:06;102013.41;;;9.66;55.44
71966;BME280;59836;52.132;5.442;2023-04-26T12:29:33;102014.69;;;9.52;54.60
71966;BME280;59836;52.132;5.442;2023-04-26T12:32:01;102013.69;;;9.34;56.50
71966;BME280;59836;52.132;5.442;2023-04-26T12:34:28;102017.94;;;9.30;57.14
71966;BME280;59836;52.132;5.442;2023-04-26T12:36:55;102023.22;;;9.25;57.60
71966;BME280;59836;52.132;5.442;2023-04-26T12:39:21;102022.03;;;9.21;57.16
71966;BME280;59836;52.132;5.442;2023-04-26T12:41:48;102017.31;;;9.16;57.04
71966;BME280;59836;52.132;5.442;2023-04-26T12:44:15;102016.72;;;9.14;57.23
71966;BME280;59836;52.132;5.442;2023-04-26T12:46:41;102017.78;;;9.13;58.76
71966;BME280;59836;52.132;5.442;2023-04-26T12:49:08;102019.28;;;9.09;59.56
71966;BME280;59836;52.132;5.442;2023-04-26T12:51:35;102021.16;;;9.08;59.94
71966;BME280;59836;52.132;5.442;2023-04-26T12:54:01;102020.34;;;9.08;59.42
71966;BME280;59836;52.132;5.442;2023-04-26T12:56:28;102013.03;;;9.08;59.37
71966;BME280;59836;52.132;5.442;2023-04-26T12:58:55;102009.66;;;9.13;60.43
71966;BME280;59836;52.132;5.442;2023-04-26T13:01:22;102011.66;;;9.18;60.03
71966;BME280;59836;52.132;5.442;2023-04-26T13:03:48;102016.16;;;9.24;60.13
71966;BME280;59836;52.132;5.442;2023-04-26T13:06:15;102010.41;;;9.32;60.10
71966;BME280;59836;52.132;5.442;2023-04-26T13:08:42;102010.53;;;9.37;59.64
71966;BME280;59836;52.132;5.442;2023-04-26T13:11:08;102013.25;;;9.37;58.67
71966;BME280;59836;52.132;5.442;2023-04-26T13:13:35;102012.66;;;9.35;58.53
71966;BME280;59836;52.132;5.442;2023-04-26T13:16:09;102021.81;;;9.34;58.37
71966;BME280;59836;52.132;5.442;2023-04-26T13:18:37;102014.75;;;9.33;58.27
71966;BME280;59836;52.132;5.442;2023-04-26T13:21:04;102017.34;;;9.28;59.17
71966;BME280;59836;52.132;5.442;2023-04-26T13:23:31;102017.00;;;9.24;59.38
71966;BME280;59836;52.132;5.442;2023-04-26T13:25:57;102013.44;;;9.24;59.23